Time;durP1;ratioP1;P1;durP2;ratioP2;P2;SDS_P1;SDS_P2;PMS_P1;PMS_P2;Temp;Humidity;BMP_temperature;BMP_pressure;BME280_temperature;BME280_humidity;BME280_pressure;Samples;Min_cycle;Max_cycle;Signal;HPM_P1;HPM_P2
2022/06/05 00:01:56;;;;;;;15.70;7.68;;;;;;;;;;4455365;32;20311;-56
2022/06/05 00:04:28;;;;;;;11.10;5.90;;;;;;;;;;4465324;32;20234;-57
2022/06/05 00:07:12;;;;;;;9.68;6.25;;;;;;;;;;4456148;32;20216;-57
2022/06/05 00:10:00;;;;;;;9.90;5.65;;;;;;;;;;4449984;32;20581;-58
2022/06/05 00:12:54;;;;;;;10.57;5.87;;;;;;;;;;4460803;32;20258;-58
2022/06/05 00:15:19;;;;;;;14.30;6.47;;;;;;;;;;4430959;32;20232;-58
2022/06/05 00:17:45;;;;;;;13.00;7.10;;;;;;;;;;4448906;32;20675;-57
2022/06/05 00:20:11;;;;;;;12.68;6.47;;;;;;;;;;4448909;32;20324;-58
2022/06/05 00:22:40;;;;;;;21.40;5.82;;;;;;;;;;4448617;32;20246;-57
2022/06/05 00:25:07;;;;;;;12.43;5.85;;;;;;;;;;4447375;32;20370;-56
2022/06/05 00:27:48;;;;;;;9.55;5.85;;;;;;;;;;4448345;32;20733;-56
2022/06/05 00:30:24;;;;;;;11.30;5.82;;;;;;;;;;4448500;32;20648;-57
2022/06/05 00:33:12;;;;;;;11.93;6.70;;;;;;;;;;4448077;32;20646;-56
2022/06/05 00:35:54;;;;;;;11.05;6.47;;;;;;;;;;4448713;32;20718;-56
2022/06/05 00:38:33;;;;;;;13.32;6.53;;;;;;;;;;4448650;32;20258;-57
2022/06/05 00:41:37;;;;;;;15.63;6.60;;;;;;;;;;4448684;32;20201;-57
2022/06/05 00:44:04;;;;;;;13.98;5.70;;;;;;;;;;4463829;32;20200;-57
2022/06/05 00:46:32;;;;;;;15.15;6.47;;;;;;;;;;4463616;32;20450;-57
2022/06/05 00:48:58;;;;;;;11.05;5.75;;;;;;;;;;4454044;32;20311;-57
2022/06/05 00:51:23;;;;;;;18.33;7.22;;;;;;;;;;4448883;32;20300;-57
2022/06/05 00:53:50;;;;;;;15.23;6.25;;;;;;;;;;4452037;32;20283;-56
2022/06/05 00:56:17;;;;;;;7.07;5.03;;;;;;;;;;4451504;32;20307;-56
2022/06/05 00:58:43;;;;;;;12.50;5.95;;;;;;;;;;4451617;32;20348;-56
2022/06/05 01:01:08;;;;;;;10.40;6.47;;;;;;;;;;4451081;32;20267;-56
2022/06/05 01:03:35;;;;;;;17.52;6.35;;;;;;;;;;4451551;32;20295;-57
2022/06/05 01:06:00;;;;;;;9.60;6.18;;;;;;;;;;4451144;32;20231;-57
2022/06/05 01:08:26;;;;;;;14.30;7.20;;;;;;;;;;4452876;32;20216;-57
2022/06/05 01:11:38;;;;;;;11.00;6.53;;;;;;;;;;4449882;32;20255;-56
2022/06/05 01:14:04;;;;;;;9.75;6.53;;;;;;;;;;4448268;32;20645;-56
2022/06/05 01:16:43;;;;;;;11.27;6.07;;;;;;;;;;4451489;32;20273;-57
2022/06/05 01:19:27;;;;;;;8.02;6.10;;;;;;;;;;4451472;32;20297;-56
2022/06/05 01:22:14;;;;;;;10.00;6.53;;;;;;;;;;4450955;32;20519;-56
2022/06/05 01:24:55;;;;;;;7.78;6.03;;;;;;;;;;4451536;32;20325;-56
2022/06/05 01:27:27;;;;;;;18.37;6.28;;;;;;;;;;4450846;32;20232;-57
2022/06/05 01:30:16;;;;;;;12.57;6.20;;;;;;;;;;4450942;32;20532;-57
2022/06/05 01:33:08;;;;;;;11.12;5.25;;;;;;;;;;4451151;32;20239;-57
2022/06/05 01:35:45;;;;;;;8.50;5.53;;;;;;;;;;4451384;32;20228;-57
2022/06/05 01:38:37;;;;;;;7.22;5.75;;;;;;;;;;4461486;32;20219;-57
2022/06/05 01:41:09;;;;;;;10.70;5.40;;;;;;;;;;4455305;32;20239;-57
2022/06/05 01:43:39;;;;;;;12.68;6.47;;;;;;;;;;4466543;32;20193;-57
2022/06/05 01:46:14;;;;;;;16.90;6.53;;;;;;;;;;4450818;32;20204;-57
2022/06/05 01:48:45;;;;;;;18.05;7.00;;;;;;;;;;4451535;32;20191;-57
2022/06/05 01:51:27;;;;;;;9.10;6.50;;;;;;;;;;4451175;32;20251;-57
2022/06/05 01:53:54;;;;;;;10.60;6.65;;;;;;;;;;4451341;32;20342;-57
2022/06/05 01:56:32;;;;;;;13.95;7.45;;;;;;;;;;4460035;32;20282;-57
2022/06/05 01:59:08;;;;;;;12.23;6.65;;;;;;;;;;4466171;32;20354;-57
2022/06/05 02:01:39;;;;;;;8.02;6.55;;;;;;;;;;4465383;32;20248;-57
2022/06/05 02:04:18;;;;;;;12.32;6.28;;;;;;;;;;4466306;32;20192;-57
2022/06/05 02:06:55;;;;;;;9.52;5.12;;;;;;;;;;4466418;32;20216;-56
2022/06/05 02:09:36;;;;;;;9.52;5.93;;;;;;;;;;4453307;32;20731;-58
2022/06/05 02:12:04;;;;;;;12.77;6.03;;;;;;;;;;4450704;32;20296;-57
2022/06/05 02:14:29;;;;;;;9.75;5.65;;;;;;;;;;4450680;32;20276;-57
2022/06/05 02:16:55;;;;;;;7.12;6.00;;;;;;;;;;4450272;32;20228;-57
2022/06/05 02:19:22;;;;;;;14.75;7.87;;;;;;;;;;4449288;32;20302;-57
2022/06/05 02:21:48;;;;;;;20.30;9.15;;;;;;;;;;4450855;32;20373;-57
2022/06/05 02:24:14;;;;;;;13.52;9.20;;;;;;;;;;4450606;32;20247;-59
2022/06/05 02:26:40;;;;;;;21.08;9.05;;;;;;;;;;4450208;32;20256;-59
2022/06/05 02:29:12;;;;;;;12.30;8.10;;;;;;;;;;4450075;32;20282;-59
2022/06/05 02:32:01;;;;;;;13.82;7.78;;;;;;;;;;4450379;32;20307;-59
2022/06/05 02:34:43;;;;;;;15.45;7.40;;;;;;;;;;4450783;32;20254;-60
2022/06/05 02:37:36;;;;;;;6.72;6.03;;;;;;;;;;4450226;32;20287;-60
2022/06/05 02:40:16;;;;;;;10.93;6.00;;;;;;;;;;4450369;32;20197;-58
2022/06/05 02:42:52;;;;;;;7.00;5.97;;;;;;;;;;4450418;32;20342;-58
2022/06/05 02:45:20;;;;;;;6.97;5.78;;;;;;;;;;4450503;32;20224;-58
2022/06/05 02:47:53;;;;;;;8.35;6.28;;;;;;;;;;4450935;32;21048;-59
2022/06/05 02:50:28;;;;;;;13.30;6.10;;;;;;;;;;4450525;32;20326;-59
2022/06/05 02:53:01;;;;;;;10.60;5.75;;;;;;;;;;4459929;32;20287;-58
2022/06/05 02:55:26;;;;;;;15.07;5.82;;;;;;;;;;4461696;32;20265;-57
2022/06/05 02:57:52;;;;;;;6.35;5.60;;;;;;;;;;4450057;32;20296;-58
2022/06/05 03:00:23;;;;;;;9.00;6.25;;;;;;;;;;4450031;32;20309;-58
2022/06/05 03:05:34;;;;;;;6.68;5.22;;;;;;;;;;4449740;32;20239;-59
2022/06/05 03:08:00;;;;;;;8.77;5.90;;;;;;;;;;4450032;32;20357;-58
2022/06/05 03:10:26;;;;;;;6.78;5.15;;;;;;;;;;4449488;32;20212;-58
2022/06/05 03:12:51;;;;;;;6.47;5.40;;;;;;;;;;4449907;32;20262;-59
2022/06/05 03:15:17;;;;;;;6.28;4.87;;;;;;;;;;4449093;32;20292;-59
2022/06/05 03:17:44;;;;;;;11.07;6.07;;;;;;;;;;4450061;32;20687;-59
2022/06/05 03:20:12;;;;;;;8.55;6.05;;;;;;;;;;4449508;32;20349;-59
2022/06/05 03:22:38;;;;;;;12.00;5.97;;;;;;;;;;4449622;32;20319;-58
2022/06/05 03:25:04;;;;;;;9.57;5.30;;;;;;;;;;4449813;32;20710;-58
2022/06/05 03:27:30;;;;;;;7.50;5.95;;;;;;;;;;4449942;32;20248;-57
2022/06/05 03:29:56;;;;;;;9.93;5.68;;;;;;;;;;4449380;32;20294;-58
2022/06/05 03:32:22;;;;;;;6.50;4.95;;;;;;;;;;4449888;32;20228;-58
2022/06/05 03:34:48;;;;;;;8.52;6.70;;;;;;;;;;4450208;32;20318;-58
2022/06/05 03:37:14;;;;;;;11.98;6.70;;;;;;;;;;4448293;32;20244;-58
2022/06/05 03:39:39;;;;;;;7.65;6.10;;;;;;;;;;4449778;32;20739;-58
2022/06/05 03:42:06;;;;;;;8.73;5.05;;;;;;;;;;4449297;32;20216;-57
2022/06/05 03:44:35;;;;;;;6.82;6.00;;;;;;;;;;4449112;32;20216;-58
2022/06/05 03:47:01;;;;;;;9.95;7.03;;;;;;;;;;4449231;32;20233;-58
2022/06/05 03:49:26;;;;;;;17.83;7.60;;;;;;;;;;4447937;32;20325;-58
2022/06/05 03:51:52;;;;;;;13.05;8.10;;;;;;;;;;4453624;32;20274;-58
2022/06/05 03:54:17;;;;;;;13.52;8.23;;;;;;;;;;4464693;32;20674;-58
2022/06/05 03:56:43;;;;;;;11.18;9.00;;;;;;;;;;4464534;32;20227;-57
2022/06/05 03:59:08;;;;;;;11.63;7.37;;;;;;;;;;4464475;32;20401;-59
2022/06/05 04:01:34;;;;;;;15.30;7.93;;;;;;;;;;4464892;32;20223;-58
2022/06/05 04:03:59;;;;;;;10.70;7.97;;;;;;;;;;4464805;32;20276;-58
2022/06/05 04:06:29;;;;;;;10.38;7.90;;;;;;;;;;4464743;32;20285;-58
2022/06/05 04:08:56;;;;;;;12.50;7.70;;;;;;;;;;4455290;32;20242;-58
2022/06/05 04:11:22;;;;;;;12.37;7.07;;;;;;;;;;4448820;32;20224;-58
2022/06/05 04:13:48;;;;;;;15.52;7.37;;;;;;;;;;4448968;32;20388;-58
2022/06/05 04:16:20;;;;;;;8.02;6.68;;;;;;;;;;4449010;32;20557;-59
2022/06/05 04:18:46;;;;;;;9.55;7.35;;;;;;;;;;4449409;32;20562;-60
2022/06/05 04:21:19;;;;;;;12.93;7.30;;;;;;;;;;4448775;32;20216;-58
2022/06/05 04:23:45;;;;;;;9.20;6.60;;;;;;;;;;4449221;32;20197;-59
2022/06/05 04:26:13;;;;;;;11.30;6.12;;;;;;;;;;4448335;32;20286;-57
2022/06/05 04:28:40;;;;;;;12.75;6.47;;;;;;;;;;4448754;32;20205;-57
2022/06/05 04:31:16;;;;;;;13.95;7.25;;;;;;;;;;4448690;32;20223;-57
2022/06/05 04:33:42;;;;;;;13.80;7.30;;;;;;;;;;4449061;32;20254;-58
2022/06/05 04:36:07;;;;;;;12.65;7.12;;;;;;;;;;4448859;32;20291;-58
2022/06/05 04:38:33;;;;;;;11.10;8.35;;;;;;;;;;4449360;32;20314;-58
2022/06/05 04:40:58;;;;;;;11.43;7.68;;;;;;;;;;4449330;32;20220;-59
2022/06/05 04:43:24;;;;;;;12.75;7.50;;;;;;;;;;4448638;32;20738;-59
2022/06/05 04:45:49;;;;;;;9.48;7.50;;;;;;;;;;4448204;32;20346;-60
2022/06/05 04:48:15;;;;;;;8.50;7.07;;;;;;;;;;4448586;32;20326;-59
2022/06/05 04:50:40;;;;;;;10.77;6.28;;;;;;;;;;4448931;32;20617;-57
2022/06/05 04:53:06;;;;;;;9.60;6.87;;;;;;;;;;4448658;32;20259;-59
2022/06/05 04:55:31;;;;;;;9.18;6.78;;;;;;;;;;4452778;32;20220;-57
2022/06/05 04:57:57;;;;;;;16.90;8.43;;;;;;;;;;4463116;32;20277;-57
2022/06/05 05:00:23;;;;;;;15.32;6.78;;;;;;;;;;4464186;32;20235;-57
2022/06/05 05:02:49;;;;;;;15.25;6.55;;;;;;;;;;4464126;32;20303;-57
2022/06/05 05:05:15;;;;;;;10.35;7.15;;;;;;;;;;4463613;32;20495;-57
2022/06/05 05:07:40;;;;;;;12.73;5.95;;;;;;;;;;4464350;32;20647;-57
2022/06/05 05:10:07;;;;;;;11.38;7.28;;;;;;;;;;4462809;32;20361;-59
2022/06/05 05:12:32;;;;;;;10.70;7.30;;;;;;;;;;4463853;32;20340;-59
2022/06/05 05:14:58;;;;;;;10.60;6.93;;;;;;;;;;4463739;32;20309;-58
2022/06/05 05:17:23;;;;;;;10.50;7.37;;;;;;;;;;4463942;32;20227;-58
2022/06/05 05:19:49;;;;;;;23.77;7.45;;;;;;;;;;4463838;32;20343;-58
2022/06/05 05:22:15;;;;;;;20.08;8.30;;;;;;;;;;4464210;32;20282;-57
2022/06/05 05:24:40;;;;;;;11.12;7.65;;;;;;;;;;4462502;32;20722;-58
2022/06/05 05:27:05;;;;;;;12.70;7.50;;;;;;;;;;4463241;32;20231;-57
2022/06/05 05:29:31;;;;;;;10.02;7.55;;;;;;;;;;4458254;32;20287;-57
2022/06/05 05:31:57;;;;;;;9.75;7.47;;;;;;;;;;4447812;32;20237;-58
2022/06/05 05:34:22;;;;;;;10.50;6.95;;;;;;;;;;4448723;32;20363;-58
2022/06/05 05:36:48;;;;;;;13.48;7.80;;;;;;;;;;4447820;32;20303;-58
2022/06/05 05:42:10;;;;;;;12.30;8.50;;;;;;;;;;4450510;32;20308;-58
2022/06/05 05:44:37;;;;;;;15.93;8.95;;;;;;;;;;4450744;32;20201;-59
2022/06/05 05:47:08;;;;;;;12.20;8.45;;;;;;;;;;4449388;32;20248;-59
2022/06/05 05:49:34;;;;;;;9.77;7.07;;;;;;;;;;4450831;32;20510;-59
2022/06/05 05:52:00;;;;;;;9.40;7.18;;;;;;;;;;4450800;32;20314;-59
2022/06/05 05:54:25;;;;;;;19.45;8.38;;;;;;;;;;4450610;32;20302;-59
2022/06/05 05:56:51;;;;;;;11.18;8.55;;;;;;;;;;4462857;32;20258;-59
2022/06/05 05:59:19;;;;;;;15.73;8.07;;;;;;;;;;4466085;32;20315;-59
2022/06/05 06:01:44;;;;;;;15.38;8.32;;;;;;;;;;4465796;32;20645;-59
2022/06/05 06:04:09;;;;;;;14.65;9.50;;;;;;;;;;4465964;32;20331;-59
2022/06/05 06:06:36;;;;;;;22.08;8.55;;;;;;;;;;4465931;32;20258;-59
2022/06/05 06:09:03;;;;;;;11.60;8.05;;;;;;;;;;4456623;32;20356;-59
2022/06/05 06:11:29;;;;;;;11.50;8.23;;;;;;;;;;4450150;32;20760;-59
2022/06/05 06:13:54;;;;;;;11.23;9.02;;;;;;;;;;4450181;32;20295;-59
2022/06/05 06:16:20;;;;;;;11.93;8.60;;;;;;;;;;4449943;32;20292;-58
2022/06/05 06:18:45;;;;;;;19.52;8.98;;;;;;;;;;4450322;32;20275;-59
2022/06/05 06:21:11;;;;;;;20.12;9.77;;;;;;;;;;4451021;32;20229;-60
2022/06/05 06:23:36;;;;;;;14.80;9.35;;;;;;;;;;4450856;32;20291;-60
2022/06/05 06:26:08;;;;;;;14.10;8.85;;;;;;;;;;4456222;32;20310;-61
2022/06/05 06:28:34;;;;;;;13.25;9.00;;;;;;;;;;4466054;32;20264;-60
2022/06/05 06:31:04;;;;;;;19.77;9.48;;;;;;;;;;4466300;32;20201;-61
2022/06/05 06:33:30;;;;;;;11.38;8.57;;;;;;;;;;4464930;32;20216;-61
2022/06/05 06:35:59;;;;;;;18.37;8.15;;;;;;;;;;4465555;32;20208;-61
2022/06/05 06:38:24;;;;;;;13.95;9.32;;;;;;;;;;4464191;32;20237;-61
2022/06/05 06:40:57;;;;;;;12.73;10.15;;;;;;;;;;4465544;32;20205;-61
2022/06/05 06:43:22;;;;;;;21.20;10.20;;;;;;;;;;4465434;32;20670;-61
2022/06/05 06:45:48;;;;;;;11.85;8.98;;;;;;;;;;4465308;32;20282;-61
2022/06/05 06:48:13;;;;;;;13.10;8.95;;;;;;;;;;4465710;32;20295;-60
2022/06/05 06:50:39;;;;;;;13.60;8.65;;;;;;;;;;4465681;32;20209;-60
2022/06/05 06:53:04;;;;;;;18.77;9.05;;;;;;;;;;4452849;32;20232;-59
2022/06/05 06:55:32;;;;;;;22.62;9.05;;;;;;;;;;4454186;32;20632;-60
2022/06/05 06:57:58;;;;;;;12.45;8.95;;;;;;;;;;4465405;32;20295;-59
2022/06/05 07:00:23;;;;;;;11.80;8.05;;;;;;;;;;4465583;32;20312;-57
2022/06/05 07:02:49;;;;;;;11.90;7.35;;;;;;;;;;4465472;32;20306;-61
2022/06/05 07:05:14;;;;;;;12.48;8.80;;;;;;;;;;4463934;32;20231;-59
2022/06/05 07:07:40;;;;;;;16.77;9.32;;;;;;;;;;4465434;32;20256;-60
2022/06/05 07:10:06;;;;;;;12.30;8.73;;;;;;;;;;4464833;32;20275;-57
2022/06/05 07:12:35;;;;;;;16.92;8.85;;;;;;;;;;4464781;32;20236;-57
2022/06/05 07:15:02;;;;;;;18.55;9.27;;;;;;;;;;4464754;32;20322;-56
2022/06/05 07:17:28;;;;;;;15.30;8.38;;;;;;;;;;4464907;32;20794;-56
2022/06/05 07:19:54;;;;;;;11.82;8.40;;;;;;;;;;4449223;32;20204;-56
2022/06/05 07:22:19;;;;;;;15.55;8.23;;;;;;;;;;4449000;32;20255;-57
2022/06/05 07:24:45;;;;;;;16.48;9.70;;;;;;;;;;4460466;32;20653;-58
2022/06/05 07:27:11;;;;;;;16.62;9.13;;;;;;;;;;4464307;32;20232;-57
2022/06/05 07:29:36;;;;;;;9.70;8.52;;;;;;;;;;4458225;32;20227;-56
2022/06/05 07:32:02;;;;;;;11.48;8.88;;;;;;;;;;4449343;32;20232;-56
2022/06/05 07:34:27;;;;;;;15.25;8.52;;;;;;;;;;4460422;32;20545;-57
2022/06/05 07:36:58;;;;;;;13.88;8.95;;;;;;;;;;4453937;32;20588;-56
2022/06/05 07:39:26;;;;;;;16.75;9.30;;;;;;;;;;4456661;32;20288;-56
2022/06/05 07:41:51;;;;;;;10.45;8.88;;;;;;;;;;4452221;32;20252;-56
2022/06/05 07:44:17;;;;;;;19.20;10.43;;;;;;;;;;4456063;32;20370;-58
2022/06/05 07:46:43;;;;;;;19.05;9.55;;;;;;;;;;4455630;32;20228;-56
2022/06/05 07:49:09;;;;;;;14.73;9.98;;;;;;;;;;4447514;32;20212;-57
2022/06/05 07:54:34;;;;;;;16.20;10.05;;;;;;;;;;4454366;32;20300;-57
2022/06/05 07:57:04;;;;;;;17.27;9.73;;;;;;;;;;4455416;32;20686;-57
2022/06/05 07:59:34;;;;;;;10.65;9.32;;;;;;;;;;4448642;32;20296;-56
2022/06/05 08:02:04;;;;;;;19.48;9.52;;;;;;;;;;4452934;32;20244;-57
2022/06/05 08:04:30;;;;;;;14.73;10.07;;;;;;;;;;4452448;32;20213;-57
2022/06/05 08:06:57;;;;;;;13.55;9.35;;;;;;;;;;4446311;32;20657;-57
2022/06/05 08:09:23;;;;;;;13.05;9.48;;;;;;;;;;4453187;32;20377;-56
2022/06/05 08:11:49;;;;;;;15.60;9.20;;;;;;;;;;4447990;32;20274;-57
2022/06/05 08:14:14;;;;;;;21.52;8.23;;;;;;;;;;4447587;32;20274;-57
2022/06/05 08:16:43;;;;;;;21.33;9.27;;;;;;;;;;4457891;32;20389;-57
2022/06/05 08:19:13;;;;;;;22.58;8.35;;;;;;;;;;4448610;32;20330;-57
2022/06/05 08:21:40;;;;;;;14.32;8.23;;;;;;;;;;4463476;32;20282;-57
2022/06/05 08:24:06;;;;;;;15.80;8.55;;;;;;;;;;4459476;32;20628;-57
2022/06/05 08:26:31;;;;;;;20.62;7.43;;;;;;;;;;4457134;32;20541;-57
2022/06/05 08:28:57;;;;;;;14.52;8.80;;;;;;;;;;4449928;32;20291;-57
2022/06/05 08:31:22;;;;;;;16.40;8.05;;;;;;;;;;4448728;32;20614;-57
2022/06/05 08:33:48;;;;;;;13.30;7.97;;;;;;;;;;4448934;32;20299;-57
2022/06/05 08:36:13;;;;;;;19.20;9.05;;;;;;;;;;4449716;32;20244;-57
2022/06/05 08:41:51;;;;;;;13.75;9.07;;;;;;;;;;4450936;32;20312;-57
2022/06/05 08:44:33;;;;;;;15.88;7.55;;;;;;;;;;4449079;32;20280;-58
2022/06/05 08:47:06;;;;;;;9.65;7.53;;;;;;;;;;4448075;32;20844;-58
2022/06/05 08:49:50;;;;;;;16.23;7.72;;;;;;;;;;4448720;32;20237;-57
2022/06/05 08:52:31;;;;;;;9.55;7.35;;;;;;;;;;4453512;32;20545;-57
2022/06/05 08:55:07;;;;;;;11.82;8.00;;;;;;;;;;4459841;32;20530;-57
2022/06/05 08:57:39;;;;;;;8.63;6.62;;;;;;;;;;4453747;32;20280;-57
2022/06/05 09:00:12;;;;;;;9.80;6.32;;;;;;;;;;4459558;32;20274;-57
2022/06/05 09:02:52;;;;;;;8.13;6.43;;;;;;;;;;4451957;32;20228;-57
2022/06/05 09:05:23;;;;;;;7.95;5.70;;;;;;;;;;4457748;32;20293;-57
2022/06/05 09:07:58;;;;;;;7.25;5.47;;;;;;;;;;4453610;32;20307;-57
2022/06/05 09:10:42;;;;;;;20.70;6.00;;;;;;;;;;4448732;32;20197;-57
2022/06/05 09:13:16;;;;;;;11.50;6.22;;;;;;;;;;4449827;32;20331;-57
2022/06/05 09:15:47;;;;;;;8.45;5.10;;;;;;;;;;4450885;32;20207;-57
2022/06/05 09:18:19;;;;;;;8.23;4.70;;;;;;;;;;4456260;32;20629;-58
2022/06/05 09:20:51;;;;;;;5.85;4.15;;;;;;;;;;4457531;32;20275;-57
2022/06/05 09:23:28;;;;;;;11.02;4.57;;;;;;;;;;4449287;32;20639;-56
2022/06/05 09:26:05;;;;;;;13.75;5.20;;;;;;;;;;4450633;32;20231;-58
2022/06/05 09:28:35;;;;;;;9.52;4.53;;;;;;;;;;4450954;32;20484;-58
2022/06/05 09:31:33;;;;;;;10.52;4.85;;;;;;;;;;4452184;32;20299;-56
2022/06/05 09:34:08;;;;;;;7.70;4.37;;;;;;;;;;4460728;32;20626;-56
2022/06/05 09:36:34;;;;;;;17.48;4.82;;;;;;;;;;4453832;32;20227;-56
2022/06/05 09:39:17;;;;;;;7.75;3.60;;;;;;;;;;4449512;32;20286;-57
2022/06/05 09:42:00;;;;;;;5.43;4.03;;;;;;;;;;4461333;32;20678;-58
2022/06/05 09:44:44;;;;;;;9.55;3.78;;;;;;;;;;4456526;32;20205;-57
2022/06/05 09:47:28;;;;;;;11.73;3.72;;;;;;;;;;4450991;32;20689;-56
2022/06/05 09:50:03;;;;;;;5.90;4.22;;;;;;;;;;4459652;32;20594;-56
2022/06/05 09:52:31;;;;;;;6.75;4.03;;;;;;;;;;4457660;32;20307;-56
2022/06/05 09:55:19;;;;;;;7.12;4.40;;;;;;;;;;4452586;32;20201;-56
2022/06/05 10:00:37;;;;;;;6.95;3.72;;;;;;;;;;4456077;32;20548;-56
2022/06/05 10:03:05;;;;;;;8.63;4.12;;;;;;;;;;4464242;32;20227;-57
2022/06/05 10:05:34;;;;;;;4.35;3.12;;;;;;;;;;4463404;32;20216;-57
2022/06/05 10:08:20;;;;;;;6.78;3.75;;;;;;;;;;4462103;32;20285;-56
2022/06/05 10:10:50;;;;;;;11.63;4.30;;;;;;;;;;4448798;32;20251;-56
2022/06/05 10:13:39;;;;;;;7.00;3.17;;;;;;;;;;4449833;32;20519;-57
2022/06/05 10:16:45;;;;;;;9.43;3.67;;;;;;;;;;4450098;32;20216;-58
2022/06/05 10:19:11;;;;;;;6.70;3.08;;;;;;;;;;4407091;32;20220;-58
2022/06/05 10:21:43;;;;;;;4.18;2.00;;;;;;;;;;4453260;32;20621;-58
2022/06/05 10:24:45;;;;;;;7.32;2.25;;;;;;;;;;4448918;32;20275;-58
2022/06/05 10:27:14;;;;;;;3.08;1.95;;;;;;;;;;4449806;32;20288;-58
2022/06/05 10:29:49;;;;;;;5.30;2.05;;;;;;;;;;4450404;32;20196;-58
2022/06/05 10:32:46;;;;;;;5.37;2.30;;;;;;;;;;4453290;32;20215;-58
2022/06/05 10:35:44;;;;;;;6.78;2.65;;;;;;;;;;4462096;32;20560;-59
2022/06/05 10:38:37;;;;;;;3.45;2.12;;;;;;;;;;4466209;32;20347;-61
2022/06/05 10:41:25;;;;;;;6.90;3.03;;;;;;;;;;4463976;32;20212;-59
2022/06/05 10:44:14;;;;;;;1.95;1.48;;;;;;;;;;4465812;32;20215;-59
2022/06/05 10:46:54;;;;;;;5.30;1.80;;;;;;;;;;4466006;32;20284;-58
2022/06/05 10:49:50;;;;;;;7.15;2.30;;;;;;;;;;4466128;32;20207;-58
2022/06/05 10:52:34;;;;;;;4.10;1.67;;;;;;;;;;4460721;32;20337;-59
2022/06/05 10:55:18;;;;;;;4.40;2.08;;;;;;;;;;4465752;32;20660;-59
2022/06/05 10:58:18;;;;;;;8.15;2.10;;;;;;;;;;4465184;32;20270;-59
2022/06/05 11:00:49;;;;;;;14.85;1.87;;;;;;;;;;4464801;32;20235;-59
2022/06/05 11:03:52;;;;;;;5.00;1.87;;;;;;;;;;4464170;32;20391;-59
2022/06/05 11:06:47;;;;;;;4.87;2.78;;;;;;;;;;4464322;32;20331;-59
2022/06/05 11:09:26;;;;;;;2.95;1.85;;;;;;;;;;4460374;32;20277;-60
2022/06/05 11:15:27;;;;;;;4.60;2.00;;;;;;;;;;4445791;32;20789;-59
2022/06/05 11:18:21;;;;;;;6.70;2.80;;;;;;;;;;4454930;32;20246;-58
2022/06/05 11:20:58;;;;;;;2.62;1.85;;;;;;;;;;4460051;32;20269;-58
2022/06/05 11:23:35;;;;;;;2.97;1.90;;;;;;;;;;4449529;32;20234;-59
2022/06/05 11:26:06;;;;;;;2.10;1.62;;;;;;;;;;4459235;32;20474;-58
2022/06/05 11:29:03;;;;;;;4.03;1.85;;;;;;;;;;4452912;32;20228;-58
2022/06/05 11:31:50;;;;;;;3.90;2.10;;;;;;;;;;4446088;32;20287;-58
2022/06/05 11:34:35;;;;;;;3.12;1.87;;;;;;;;;;4448609;32;20220;-58
2022/06/05 11:37:16;;;;;;;3.75;2.03;;;;;;;;;;4440545;32;20294;-58
2022/06/05 11:40:04;;;;;;;3.45;2.10;;;;;;;;;;4454640;32;20333;-58
2022/06/05 11:42:55;;;;;;;3.42;1.75;;;;;;;;;;4448054;32;20317;-58
2022/06/05 11:45:53;;;;;;;5.05;1.83;;;;;;;;;;4452606;32;20283;-58
2022/06/05 11:48:37;;;;;;;7.07;1.85;;;;;;;;;;4449752;32;20426;-59
2022/06/05 11:51:10;;;;;;;3.78;1.92;;;;;;;;;;4448828;32;20589;-60
2022/06/05 11:53:49;;;;;;;6.35;2.30;;;;;;;;;;4458076;32;20351;-59
2022/06/05 11:56:52;;;;;;;13.55;2.08;;;;;;;;;;4460733;32;20611;-59
2022/06/05 11:59:26;;;;;;;4.85;1.65;;;;;;;;;;4456296;32;20200;-58
2022/06/05 12:02:16;;;;;;;4.07;1.80;;;;;;;;;;4457723;32;20224;-59
2022/06/05 12:05:04;;;;;;;3.85;1.87;;;;;;;;;;4428570;32;20212;-59
2022/06/05 12:07:31;;;;;;;3.70;2.20;;;;;;;;;;4447027;32;20283;-59
2022/06/05 12:10:01;;;;;;;10.05;2.40;;;;;;;;;;4451975;32;20199;-57
2022/06/05 12:12:37;;;;;;;12.50;2.33;;;;;;;;;;4450588;32;20303;-58
2022/06/05 12:15:15;;;;;;;3.55;2.10;;;;;;;;;;4451239;32;20217;-58
2022/06/05 12:17:57;;;;;;;5.18;1.90;;;;;;;;;;4448739;32;20303;-58
2022/06/05 12:20:29;;;;;;;8.48;3.45;;;;;;;;;;4448561;32;20315;-57
2022/06/05 12:23:13;;;;;;;9.40;3.17;;;;;;;;;;4448530;32;20208;-57
2022/06/05 12:25:46;;;;;;;3.70;1.90;;;;;;;;;;4459215;32;20416;-57
2022/06/05 12:28:17;;;;;;;4.47;1.83;;;;;;;;;;4450628;32;20225;-58
2022/06/05 12:31:22;;;;;;;6.78;2.28;;;;;;;;;;4460429;32;20655;-57
2022/06/05 12:34:19;;;;;;;5.15;2.12;;;;;;;;;;4444815;32;20310;-57
2022/06/05 12:36:53;;;;;;;5.28;2.35;;;;;;;;;;4453261;32;20274;-58
2022/06/05 12:39:26;;;;;;;4.57;2.05;;;;;;;;;;4448653;32;20681;-58
2022/06/05 12:42:10;;;;;;;6.65;1.60;;;;;;;;;;4447637;32;20679;-57
2022/06/05 12:44:44;;;;;;;3.60;1.70;;;;;;;;;;4453105;32;20568;-57
2022/06/05 12:47:39;;;;;;;6.50;1.98;;;;;;;;;;4448591;32;20310;-58
2022/06/05 12:50:41;;;;;;;3.28;1.90;;;;;;;;;;4437031;32;20254;-57
2022/06/05 12:53:29;;;;;;;7.30;1.85;;;;;;;;;;4463004;32;20243;-57
2022/06/05 12:56:00;;;;;;;5.03;2.03;;;;;;;;;;4461567;32;20603;-57
2022/06/05 12:58:59;;;;;;;7.35;2.87;;;;;;;;;;4451476;32;20196;-57
2022/06/05 13:01:31;;;;;;;4.18;1.92;;;;;;;;;;4460193;32;20212;-57
2022/06/05 13:04:16;;;;;;;4.68;2.28;;;;;;;;;;4466948;32;20204;-57
2022/06/05 13:06:47;;;;;;;4.85;1.85;;;;;;;;;;4466996;32;20290;-57
2022/06/05 13:09:28;;;;;;;10.05;1.98;;;;;;;;;;4455323;32;20213;-57
2022/06/05 13:12:06;;;;;;;3.10;1.95;;;;;;;;;;4450849;32;20251;-57
2022/06/05 13:14:45;;;;;;;3.83;2.08;;;;;;;;;;4450080;32;20672;-57
2022/06/05 13:17:32;;;;;;;5.32;1.92;;;;;;;;;;4449658;32;20242;-57
2022/06/05 13:20:39;;;;;;;5.45;2.03;;;;;;;;;;4451394;32;20264;-57
2022/06/05 13:23:38;;;;;;;6.30;1.98;;;;;;;;;;4449957;32;20244;-57
2022/06/05 13:26:32;;;;;;;3.22;1.30;;;;;;;;;;4448960;32;20660;-57
2022/06/05 13:29:29;;;;;;;9.52;2.72;;;;;;;;;;4451013;32;20193;-57
2022/06/05 13:31:56;;;;;;;6.60;2.25;;;;;;;;;;4450971;32;20220;-57
2022/06/05 13:34:33;;;;;;;5.70;2.20;;;;;;;;;;4452235;32;20735;-57
2022/06/05 13:37:18;;;;;;;5.85;2.30;;;;;;;;;;4466366;32;20706;-57
2022/06/05 13:39:56;;;;;;;3.72;1.62;;;;;;;;;;4466162;32;20204;-57
2022/06/05 13:42:24;;;;;;;4.37;1.92;;;;;;;;;;4465243;32;20271;-57
2022/06/05 13:44:57;;;;;;;3.58;1.83;;;;;;;;;;4466266;32;20248;-57
2022/06/05 13:47:36;;;;;;;7.55;2.83;;;;;;;;;;4466625;32;20600;-57
2022/06/05 13:50:20;;;;;;;5.30;2.08;;;;;;;;;;4466440;32;20284;-57
2022/06/05 13:52:49;;;;;;;7.40;1.92;;;;;;;;;;4455838;32;20237;-57
2022/06/05 13:55:36;;;;;;;6.12;1.92;;;;;;;;;;4450912;32;20302;-57
2022/06/05 13:58:10;;;;;;;4.95;2.08;;;;;;;;;;4450572;32;20220;-58
2022/06/05 14:01:04;;;;;;;8.05;1.85;;;;;;;;;;4450827;32;20201;-58
2022/06/05 14:03:46;;;;;;;3.85;2.00;;;;;;;;;;4450973;32;20280;-54
2022/06/05 14:06:18;;;;;;;4.35;1.90;;;;;;;;;;4450733;32;20213;-55
2022/06/05 14:09:16;;;;;;;4.37;1.77;;;;;;;;;;4450671;32;20783;-54
2022/06/05 14:11:42;;;;;;;3.60;1.95;;;;;;;;;;4446327;32;20258;-57
2022/06/05 14:14:08;;;;;;;3.53;1.87;;;;;;;;;;4450245;32;20292;-56
2022/06/05 14:16:45;;;;;;;4.68;1.92;;;;;;;;;;4450193;32;20233;-57
2022/06/05 14:19:23;;;;;;;9.30;1.60;;;;;;;;;;4450199;32;20196;-57
2022/06/05 14:21:54;;;;;;;5.53;2.03;;;;;;;;;;4449926;32;20303;-56
2022/06/05 14:24:26;;;;;;;5.53;2.00;;;;;;;;;;4450024;32;20243;-56
2022/06/05 14:26:59;;;;;;;5.93;2.35;;;;;;;;;;4449770;32;20255;-56
2022/06/05 14:29:45;;;;;;;5.45;1.95;;;;;;;;;;4450040;32;20291;-56
2022/06/05 14:32:23;;;;;;;2.70;1.75;;;;;;;;;;4447870;32;20242;-55
2022/06/05 14:35:28;;;;;;;4.28;1.98;;;;;;;;;;4454437;32;20220;-56
2022/06/05 14:37:57;;;;;;;4.30;1.75;;;;;;;;;;4454531;32;20235;-56
2022/06/05 14:40:29;;;;;;;8.65;1.60;;;;;;;;;;4465244;32;20222;-56
2022/06/05 14:43:11;;;;;;;2.62;1.65;;;;;;;;;;4465606;32;20217;-57
2022/06/05 14:45:52;;;;;;;2.67;1.95;;;;;;;;;;4465655;32;20212;-56
2022/06/05 14:48:28;;;;;;;7.25;2.08;;;;;;;;;;4465609;32;20203;-57
2022/06/05 14:51:04;;;;;;;5.07;2.35;;;;;;;;;;4465719;32;20196;-57
2022/06/05 14:53:44;;;;;;;7.32;2.85;;;;;;;;;;4449990;32;20211;-57
2022/06/05 14:59:16;;;;;;;4.45;2.55;;;;;;;;;;4465356;32;20227;-57
2022/06/05 15:01:52;;;;;;;2.12;1.77;;;;;;;;;;4465107;32;20660;-57
2022/06/05 15:04:29;;;;;;;2.95;2.53;;;;;;;;;;4464977;32;20204;-57
2022/06/05 15:07:24;;;;;;;8.50;2.45;;;;;;;;;;4464942;32;20231;-57
2022/06/05 15:10:04;;;;;;;9.40;2.55;;;;;;;;;;4448844;32;20296;-57
2022/06/05 15:12:50;;;;;;;7.05;2.35;;;;;;;;;;4449319;32;20279;-57
2022/06/05 15:15:20;;;;;;;6.10;2.15;;;;;;;;;;4449552;32;20193;-57
2022/06/05 15:17:51;;;;;;;6.05;1.90;;;;;;;;;;4447978;32;20213;-57
2022/06/05 15:20:49;;;;;;;3.65;1.70;;;;;;;;;;4449454;32;20209;-57
2022/06/05 15:23:38;;;;;;;5.12;2.17;;;;;;;;;;4448858;32;20236;-57
2022/06/05 15:26:28;;;;;;;8.50;2.40;;;;;;;;;;4448841;32;20445;-57
2022/06/05 15:29:10;;;;;;;10.88;3.12;;;;;;;;;;4449002;32;20197;-57
2022/06/05 15:32:11;;;;;;;6.40;2.20;;;;;;;;;;4449005;32;20575;-57
2022/06/05 15:34:46;;;;;;;2.62;1.87;;;;;;;;;;4443636;32;20548;-57
2022/06/05 15:37:22;;;;;;;3.50;2.47;;;;;;;;;;4464599;32;20244;-58
2022/06/05 15:40:02;;;;;;;4.45;2.70;;;;;;;;;;4464267;32;20631;-57